sensor_id;sensor_type;location;lat;lon;timestamp;temperature;humidity
4453;DHT22;2239;48.152;11.584;2023-07-13T00:01:44;19.40;99.90
4453;DHT22;2239;48.152;11.584;2023-07-13T00:04:11;19.40;99.90
4453;DHT22;2239;48.152;11.584;2023-07-13T00:06:37;19.40;99.90
4453;DHT22;2239;48.152;11.584;2023-07-13T00:09:03;19.40;99.90
4453;DHT22;2239;48.152;11.584;2023-07-13T00:11:28;19.40;99.90
4453;DHT22;2239;48.152;11.584;2023-07-13T00:13:54;19.40;99.90
4453;DHT22;2239;48.152;11.584;2023-07-13T00:16:19;19.40;99.90
4453;DHT22;2239;48.152;11.584;2023-07-13T00:18:46;19.40;99.90
4453;DHT22;2239;48.152;11.584;2023-07-13T00:21:12;19.40;99.90
4453;DHT22;2239;48.152;11.584;2023-07-13T00:23:39;19.40;99.90
4453;DHT22;2239;48.152;11.584;2023-07-13T00:26:06;19.40;99.90
4453;DHT22;2239;48.152;11.584;2023-07-13T00:28:33;19.30;99.90
4453;DHT22;2239;48.152;11.584;2023-07-13T00:31:00;19.30;99.90
4453;DHT22;2239;48.152;11.584;2023-07-13T00:33:26;19.30;99.90
4453;DHT22;2239;48.152;11.584;2023-07-13T00:35:53;19.30;99.90
4453;DHT22;2239;48.152;11.584;2023-07-13T00:38:19;19.40;99.90
4453;DHT22;2239;48.152;11.584;2023-07-13T00:40:45;19.40;99.90
4453;DHT22;2239;48.152;11.584;2023-07-13T00:43:19;19.50;99.90
4453;DHT22;2239;48.152;11.584;2023-07-13T00:48:18;19.50;99.90
4453;DHT22;2239;48.152;11.584;2023-07-13T00:50:48;19.50;99.90
4453;DHT22;2239;48.152;11.584;2023-07-13T00:53:15;19.40;99.90
4453;DHT22;2239;48.152;11.584;2023-07-13T00:55:41;19.40;99.90
4453;DHT22;2239;48.152;11.584;2023-07-13T00:58:07;19.50;99.90
4453;DHT22;2239;48.152;11.584;2023-07-13T01:00:35;19.50;99.90
4453;DHT22;2239;48.152;11.584;2023-07-13T01:03:01;19.50;99.90
4453;DHT22;2239;48.152;11.584;2023-07-13T01:05:30;19.50;99.90
4453;DHT22;2239;48.152;11.584;2023-07-13T01:07:57;19.50;99.90
4453;DHT22;2239;48.152;11.584;2023-07-13T01:10:24;19.50;99.90
4453;DHT22;2239;48.152;11.584;2023-07-13T01:12:49;19.50;99.90
4453;DHT22;2239;48.152;11.584;2023-07-13T01:18:00;19.50;99.90
4453;DHT22;2239;48.152;11.584;2023-07-13T01:20:26;19.50;99.90
4453;DHT22;2239;48.152;11.584;2023-07-13T01:22:52;19.50;99.90
4453;DHT22;2239;48.152;11.584;2023-07-13T01:25:18;19.50;99.90
4453;DHT22;2239;48.152;11.584;2023-07-13T01:27:44;19.50;99.90
4453;DHT22;2239;48.152;11.584;2023-07-13T01:30:10;19.50;99.90
4453;DHT22;2239;48.152;11.584;2023-07-13T01:32:35;19.50;99.90
4453;DHT22;2239;48.152;11.584;2023-07-13T01:35:02;19.50;99.90
4453;DHT22;2239;48.152;11.584;2023-07-13T01:37:28;19.50;99.90
4453;DHT22;2239;48.152;11.584;2023-07-13T01:39:58;19.60;99.90
4453;DHT22;2239;48.152;11.584;2023-07-13T01:42:24;19.60;99.90
4453;DHT22;2239;48.152;11.584;2023-07-13T01:44:50;19.60;99.90
4453;DHT22;2239;48.152;11.584;2023-07-13T01:47:15;19.60;99.90
4453;DHT22;2239;48.152;11.584;2023-07-13T01:49:41;19.70;99.90
4453;DHT22;2239;48.152;11.584;2023-07-13T01:52:07;19.80;99.90
4453;DHT22;2239;48.152;11.584;2023-07-13T01:54:33;19.80;99.90
4453;DHT22;2239;48.152;11.584;2023-07-13T01:56:59;19.80;99.90
4453;DHT22;2239;48.152;11.584;2023-07-13T01:59:25;19.80;99.90
4453;DHT22;2239;48.152;11.584;2023-07-13T02:01:50;19.80;99.90
4453;DHT22;2239;48.152;11.584;2023-07-13T02:04:16;19.70;99.90
4453;DHT22;2239;48.152;11.584;2023-07-13T02:06:42;19.60;99.90
4453;DHT22;2239;48.152;11.584;2023-07-13T02:09:07;19.50;99.90
4453;DHT22;2239;48.152;11.584;2023-07-13T02:11:33;19.50;99.90
4453;DHT22;2239;48.152;11.584;2023-07-13T02:14:02;19.60;99.90
4453;DHT22;2239;48.152;11.584;2023-07-13T02:16:29;19.60;99.90
4453;DHT22;2239;48.152;11.584;2023-07-13T02:18:55;19.60;99.90
4453;DHT22;2239;48.152;11.584;2023-07-13T02:21:21;19.60;99.90
4453;DHT22;2239;48.152;11.584;2023-07-13T02:23:47;19.60;99.90
4453;DHT22;2239;48.152;11.584;2023-07-13T02:26:13;19.60;99.90
4453;DHT22;2239;48.152;11.584;2023-07-13T02:28:38;19.60;99.90
4453;DHT22;2239;48.152;11.584;2023-07-13T02:31:06;19.70;99.90
4453;DHT22;2239;48.152;11.584;2023-07-13T02:33:32;19.70;99.90
4453;DHT22;2239;48.152;11.584;2023-07-13T02:35:57;19.70;99.90
4453;DHT22;2239;48.152;11.584;2023-07-13T02:38:23;19.80;99.90
4453;DHT22;2239;48.152;11.584;2023-07-13T02:40:48;19.80;99.90
4453;DHT22;2239;48.152;11.584;2023-07-13T02:43:14;19.80;99.90
4453;DHT22;2239;48.152;11.584;2023-07-13T02:45:43;19.80;99.90
4453;DHT22;2239;48.152;11.584;2023-07-13T02:48:09;19.80;99.90
4453;DHT22;2239;48.152;11.584;2023-07-13T02:50:34;19.80;99.90
4453;DHT22;2239;48.152;11.584;2023-07-13T02:53:00;19.80;99.90
4453;DHT22;2239;48.152;11.584;2023-07-13T02:55:25;19.80;99.90
4453;DHT22;2239;48.152;11.584;2023-07-13T02:57:51;19.70;99.90
4453;DHT22;2239;48.152;11.584;2023-07-13T03:00:17;19.70;99.90
4453;DHT22;2239;48.152;11.584;2023-07-13T03:02:42;19.60;99.90
4453;DHT22;2239;48.152;11.584;2023-07-13T03:05:08;19.60;99.90
4453;DHT22;2239;48.152;11.584;2023-07-13T03:07:38;19.50;99.90
4453;DHT22;2239;48.152;11.584;2023-07-13T03:10:04;19.50;99.90
4453;DHT22;2239;48.152;11.584;2023-07-13T03:12:29;19.40;99.90
4453;DHT22;2239;48.152;11.584;2023-07-13T03:14:55;19.30;99.90
4453;DHT22;2239;48.152;11.584;2023-07-13T03:17:20;19.30;99.90
4453;DHT22;2239;48.152;11.584;2023-07-13T03:19:46;19.30;99.90
4453;DHT22;2239;48.152;11.584;2023-07-13T03:22:16;19.20;99.90
4453;DHT22;2239;48.152;11.584;2023-07-13T03:24:41;19.20;99.90
4453;DHT22;2239;48.152;11.584;2023-07-13T03:27:07;19.30;99.90
4453;DHT22;2239;48.152;11.584;2023-07-13T03:29:33;19.20;99.90
4453;DHT22;2239;48.152;11.584;2023-07-13T03:31:58;19.20;99.90
4453;DHT22;2239;48.152;11.584;2023-07-13T03:34:24;19.20;99.90
4453;DHT22;2239;48.152;11.584;2023-07-13T03:36:50;19.10;99.90
4453;DHT22;2239;48.152;11.584;2023-07-13T03:39:15;19.00;99.90
4453;DHT22;2239;48.152;11.584;2023-07-13T03:41:41;19.00;99.90
4453;DHT22;2239;48.152;11.584;2023-07-13T03:44:06;18.90;99.90
4453;DHT22;2239;48.152;11.584;2023-07-13T03:46:32;19.00;99.90
4453;DHT22;2239;48.152;11.584;2023-07-13T03:48:59;18.90;99.90
4453;DHT22;2239;48.152;11.584;2023-07-13T03:51:25;18.90;99.90
4453;DHT22;2239;48.152;11.584;2023-07-13T03:53:50;19.00;99.90
4453;DHT22;2239;48.152;11.584;2023-07-13T03:56:17;19.00;99.90
4453;DHT22;2239;48.152;11.584;2023-07-13T03:58:46;19.00;99.90
4453;DHT22;2239;48.152;11.584;2023-07-13T04:01:13;18.90;99.90
4453;DHT22;2239;48.152;11.584;2023-07-13T04:03:39;18.90;99.90
4453;DHT22;2239;48.152;11.584;2023-07-13T04:06:06;18.90;99.90
4453;DHT22;2239;48.152;11.584;2023-07-13T04:08:34;18.90;99.90
4453;DHT22;2239;48.152;11.584;2023-07-13T04:11:03;18.90;99.90
4453;DHT22;2239;48.152;11.584;2023-07-13T04:13:29;18.80;99.90
4453;DHT22;2239;48.152;11.584;2023-07-13T04:15:54;18.80;99.90
4453;DHT22;2239;48.152;11.584;2023-07-13T04:18:20;18.70;99.90
4453;DHT22;2239;48.152;11.584;2023-07-13T04:20:47;18.70;99.90
4453;DHT22;2239;48.152;11.584;2023-07-13T04:23:13;18.60;99.90
4453;DHT22;2239;48.152;11.584;2023-07-13T04:25:39;18.60;99.90
4453;DHT22;2239;48.152;11.584;2023-07-13T04:28:05;18.60;99.90
4453;DHT22;2239;48.152;11.584;2023-07-13T04:30:30;18.60;99.90
4453;DHT22;2239;48.152;11.584;2023-07-13T04:32:56;18.70;99.90
4453;DHT22;2239;48.152;11.584;2023-07-13T04:35:22;18.70;99.90
4453;DHT22;2239;48.152;11.584;2023-07-13T04:37:49;18.80;99.90
4453;DHT22;2239;48.152;11.584;2023-07-13T04:40:18;18.80;99.90
4453;DHT22;2239;48.152;11.584;2023-07-13T04:42:46;18.90;99.90
4453;DHT22;2239;48.152;11.584;2023-07-13T04:45:14;18.90;99.90
4453;DHT22;2239;48.152;11.584;2023-07-13T04:47:40;19.00;99.90
4453;DHT22;2239;48.152;11.584;2023-07-13T04:50:07;19.00;99.90
4453;DHT22;2239;48.152;11.584;2023-07-13T04:52:33;19.00;99.90
4453;DHT22;2239;48.152;11.584;2023-07-13T04:54:59;19.00;99.90
4453;DHT22;2239;48.152;11.584;2023-07-13T04:57:26;19.00;99.90
4453;DHT22;2239;48.152;11.584;2023-07-13T04:59:51;19.00;99.90
4453;DHT22;2239;48.152;11.584;2023-07-13T05:02:17;19.00;99.90
4453;DHT22;2239;48.152;11.584;2023-07-13T05:04:46;19.10;99.90
4453;DHT22;2239;48.152;11.584;2023-07-13T05:07:12;19.10;99.90
4453;DHT22;2239;48.152;11.584;2023-07-13T05:09:37;19.10;99.90
4453;DHT22;2239;48.152;11.584;2023-07-13T05:12:04;19.10;99.90
4453;DHT22;2239;48.152;11.584;2023-07-13T05:14:30;19.10;99.90
4453;DHT22;2239;48.152;11.584;2023-07-13T05:16:55;19.10;99.90
4453;DHT22;2239;48.152;11.584;2023-07-13T05:19:22;19.10;99.90
4453;DHT22;2239;48.152;11.584;2023-07-13T05:21:48;19.10;99.90
4453;DHT22;2239;48.152;11.584;2023-07-13T05:24:13;19.10;99.90
4453;DHT22;2239;48.152;11.584;2023-07-13T05:26:39;19.00;99.90
4453;DHT22;2239;48.152;11.584;2023-07-13T05:29:04;19.00;99.90
4453;DHT22;2239;48.152;11.584;2023-07-13T05:31:30;19.00;99.90
4453;DHT22;2239;48.152;11.584;2023-07-13T05:33:55;18.90;99.90
4453;DHT22;2239;48.152;11.584;2023-07-13T05:36:21;18.90;99.90
4453;DHT22;2239;48.152;11.584;2023-07-13T05:38:46;18.90;99.90
4453;DHT22;2239;48.152;11.584;2023-07-13T05:41:12;18.90;99.90
4453;DHT22;2239;48.152;11.584;2023-07-13T05:43:37;18.90;99.90
4453;DHT22;2239;48.152;11.584;2023-07-13T05:46:03;18.90;99.90
4453;DHT22;2239;48.152;11.584;2023-07-13T05:48:28;18.90;99.90
4453;DHT22;2239;48.152;11.584;2023-07-13T05:50:54;18.90;99.90
4453;DHT22;2239;48.152;11.584;2023-07-13T05:53:20;18.90;99.90
4453;DHT22;2239;48.152;11.584;2023-07-13T05:55:46;19.00;99.90
4453;DHT22;2239;48.152;11.584;2023-07-13T05:58:13;19.10;99.90
4453;DHT22;2239;48.152;11.584;2023-07-13T06:00:39;19.20;99.90
4453;DHT22;2239;48.152;11.584;2023-07-13T06:03:05;19.30;99.90
4453;DHT22;2239;48.152;11.584;2023-07-13T06:05:32;19.40;99.90
4453;DHT22;2239;48.152;11.584;2023-07-13T06:07:59;19.40;99.90
4453;DHT22;2239;48.152;11.584;2023-07-13T06:10:25;19.50;99.90
4453;DHT22;2239;48.152;11.584;2023-07-13T06:12:50;19.50;99.90
4453;DHT22;2239;48.152;11.584;2023-07-13T06:15:16;19.50;99.90
4453;DHT22;2239;48.152;11.584;2023-07-13T06:17:42;19.60;99.90
4453;DHT22;2239;48.152;11.584;2023-07-13T06:20:07;19.60;99.90
4453;DHT22;2239;48.152;11.584;2023-07-13T06:22:33;19.70;99.90
4453;DHT22;2239;48.152;11.584;2023-07-13T06:24:58;19.80;99.90
4453;DHT22;2239;48.152;11.584;2023-07-13T06:27:24;19.90;99.90
4453;DHT22;2239;48.152;11.584;2023-07-13T06:29:50;20.10;99.90
4453;DHT22;2239;48.152;11.584;2023-07-13T06:32:15;20.20;99.90
4453;DHT22;2239;48.152;11.584;2023-07-13T06:34:41;20.30;99.90
4453;DHT22;2239;48.152;11.584;2023-07-13T06:37:07;20.30;99.90
4453;DHT22;2239;48.152;11.584;2023-07-13T06:39:32;20.40;99.90
4453;DHT22;2239;48.152;11.584;2023-07-13T06:41:58;20.60;99.90
4453;DHT22;2239;48.152;11.584;2023-07-13T06:44:23;20.70;99.90
4453;DHT22;2239;48.152;11.584;2023-07-13T06:46:49;20.70;99.90
4453;DHT22;2239;48.152;11.584;2023-07-13T06:49:15;20.70;99.90
4453;DHT22;2239;48.152;11.584;2023-07-13T06:51:40;20.60;99.90
4453;DHT22;2239;48.152;11.584;2023-07-13T06:54:06;20.60;99.90
4453;DHT22;2239;48.152;11.584;2023-07-13T06:56:31;20.50;99.90
4453;DHT22;2239;48.152;11.584;2023-07-13T06:58:57;20.50;99.90
4453;DHT22;2239;48.152;11.584;2023-07-13T07:01:22;20.50;99.90
4453;DHT22;2239;48.152;11.584;2023-07-13T07:03:48;20.50;99.90
4453;DHT22;2239;48.152;11.584;2023-07-13T07:06:17;20.60;99.90
4453;DHT22;2239;48.152;11.584;2023-07-13T07:08:43;20.50;99.90
4453;DHT22;2239;48.152;11.584;2023-07-13T07:11:16;20.50;99.90
4453;DHT22;2239;48.152;11.584;2023-07-13T07:13:42;20.60;99.90
4453;DHT22;2239;48.152;11.584;2023-07-13T07:16:08;20.70;99.90
4453;DHT22;2239;48.152;11.584;2023-07-13T07:18:34;20.80;99.90
4453;DHT22;2239;48.152;11.584;2023-07-13T07:21:00;20.90;99.90
4453;DHT22;2239;48.152;11.584;2023-07-13T07:23:26;21.10;99.90
4453;DHT22;2239;48.152;11.584;2023-07-13T07:25:51;21.00;99.90
4453;DHT22;2239;48.152;11.584;2023-07-13T07:28:17;21.00;99.90
4453;DHT22;2239;48.152;11.584;2023-07-13T07:30:44;21.00;99.90
4453;DHT22;2239;48.152;11.584;2023-07-13T07:33:10;21.00;99.90
4453;DHT22;2239;48.152;11.584;2023-07-13T07:35:35;20.90;99.90
4453;DHT22;2239;48.152;11.584;2023-07-13T07:38:01;20.90;99.90
4453;DHT22;2239;48.152;11.584;2023-07-13T07:40:26;21.00;99.90
4453;DHT22;2239;48.152;11.584;2023-07-13T07:42:52;20.90;99.90
4453;DHT22;2239;48.152;11.584;2023-07-13T07:45:18;21.00;99.90
4453;DHT22;2239;48.152;11.584;2023-07-13T07:47:44;21.00;99.90
4453;DHT22;2239;48.152;11.584;2023-07-13T07:50:10;20.90;99.90
4453;DHT22;2239;48.152;11.584;2023-07-13T07:52:35;20.90;99.90
4453;DHT22;2239;48.152;11.584;2023-07-13T07:55:01;20.90;99.90
4453;DHT22;2239;48.152;11.584;2023-07-13T07:57:27;20.80;99.90
4453;DHT22;2239;48.152;11.584;2023-07-13T07:59:52;20.80;99.90
4453;DHT22;2239;48.152;11.584;2023-07-13T08:02:18;20.70;99.90
4453;DHT22;2239;48.152;11.584;2023-07-13T08:04:43;20.60;99.90
4453;DHT22;2239;48.152;11.584;2023-07-13T08:07:09;20.60;99.90
4453;DHT22;2239;48.152;11.584;2023-07-13T08:09:34;20.50;99.90
4453;DHT22;2239;48.152;11.584;2023-07-13T08:12:00;20.50;99.90
4453;DHT22;2239;48.152;11.584;2023-07-13T08:14:26;20.50;99.90
4453;DHT22;2239;48.152;11.584;2023-07-13T08:16:51;20.40;99.90
4453;DHT22;2239;48.152;11.584;2023-07-13T08:19:17;20.50;99.90
4453;DHT22;2239;48.152;11.584;2023-07-13T08:21:42;20.50;99.90
4453;DHT22;2239;48.152;11.584;2023-07-13T08:24:09;20.40;99.90
4453;DHT22;2239;48.152;11.584;2023-07-13T08:26:35;20.40;99.90
4453;DHT22;2239;48.152;11.584;2023-07-13T08:29:00;20.40;99.90
4453;DHT22;2239;48.152;11.584;2023-07-13T08:31:27;20.40;99.90
4453;DHT22;2239;48.152;11.584;2023-07-13T08:33:53;20.40;99.90
4453;DHT22;2239;48.152;11.584;2023-07-13T08:36:18;20.30;99.90
4453;DHT22;2239;48.152;11.584;2023-07-13T08:38:44;20.40;99.90
4453;DHT22;2239;48.152;11.584;2023-07-13T08:41:13;20.30;99.90
4453;DHT22;2239;48.152;11.584;2023-07-13T08:43:41;20.20;99.90
4453;DHT22;2239;48.152;11.584;2023-07-13T08:46:24;20.20;99.90
4453;DHT22;2239;48.152;11.584;2023-07-13T08:48:57;20.30;99.90
4453;DHT22;2239;48.152;11.584;2023-07-13T08:51:31;20.30;99.90
4453;DHT22;2239;48.152;11.584;2023-07-13T08:54:02;20.40;99.90
4453;DHT22;2239;48.152;11.584;2023-07-13T08:56:30;20.60;99.90
4453;DHT22;2239;48.152;11.584;2023-07-13T08:59:00;20.70;99.90
4453;DHT22;2239;48.152;11.584;2023-07-13T09:02:00;20.80;99.90
4453;DHT22;2239;48.152;11.584;2023-07-13T09:04:34;20.90;99.90
4453;DHT22;2239;48.152;11.584;2023-07-13T09:07:18;20.80;99.90
4453;DHT22;2239;48.152;11.584;2023-07-13T09:10:02;20.90;99.50
4453;DHT22;2239;48.152;11.584;2023-07-13T09:15:04;20.90;98.20
4453;DHT22;2239;48.152;11.584;2023-07-13T09:17:39;21.00;98.80
4453;DHT22;2239;48.152;11.584;2023-07-13T09:23:01;21.10;97.90
4453;DHT22;2239;48.152;11.584;2023-07-13T09:25:31;21.20;97.70
4453;DHT22;2239;48.152;11.584;2023-07-13T09:28:14;21.30;97.20
4453;DHT22;2239;48.152;11.584;2023-07-13T09:33:12;21.50;96.50
4453;DHT22;2239;48.152;11.584;2023-07-13T09:35:37;21.60;96.30
4453;DHT22;2239;48.152;11.584;2023-07-13T09:38:19;21.70;95.70
4453;DHT22;2239;48.152;11.584;2023-07-13T09:44:09;21.70;95.50
4453;DHT22;2239;48.152;11.584;2023-07-13T09:46:36;21.60;94.70
4453;DHT22;2239;48.152;11.584;2023-07-13T09:49:02;21.50;94.60
4453;DHT22;2239;48.152;11.584;2023-07-13T09:51:27;21.50;94.50
4453;DHT22;2239;48.152;11.584;2023-07-13T09:53:54;21.60;94.40
4453;DHT22;2239;48.152;11.584;2023-07-13T09:56:26;21.70;94.50
4453;DHT22;2239;48.152;11.584;2023-07-13T09:58:52;21.90;95.10
4453;DHT22;2239;48.152;11.584;2023-07-13T10:01:36;22.00;94.00
4453;DHT22;2239;48.152;11.584;2023-07-13T10:04:02;22.30;94.10
4453;DHT22;2239;48.152;11.584;2023-07-13T10:06:36;22.60;93.50
4453;DHT22;2239;48.152;11.584;2023-07-13T10:09:02;22.90;93.30
4453;DHT22;2239;48.152;11.584;2023-07-13T10:11:29;23.00;92.00
4453;DHT22;2239;48.152;11.584;2023-07-13T10:13:58;23.20;89.40
4453;DHT22;2239;48.152;11.584;2023-07-13T10:16:26;23.40;90.90
4453;DHT22;2239;48.152;11.584;2023-07-13T10:19:00;23.80;91.20
4453;DHT22;2239;48.152;11.584;2023-07-13T10:21:30;24.10;87.10
4453;DHT22;2239;48.152;11.584;2023-07-13T10:24:05;23.90;84.40
4453;DHT22;2239;48.152;11.584;2023-07-13T10:26:50;23.70;85.00
4453;DHT22;2239;48.152;11.584;2023-07-13T10:29:17;23.80;86.00
4453;DHT22;2239;48.152;11.584;2023-07-13T10:31:45;24.10;85.40
4453;DHT22;2239;48.152;11.584;2023-07-13T10:34:12;24.40;85.10
4453;DHT22;2239;48.152;11.584;2023-07-13T10:36:46;24.60;84.80
4453;DHT22;2239;48.152;11.584;2023-07-13T10:39:19;24.90;81.80
4453;DHT22;2239;48.152;11.584;2023-07-13T10:41:49;25.20;81.70
4453;DHT22;2239;48.152;11.584;2023-07-13T10:44:26;25.30;79.60
4453;DHT22;2239;48.152;11.584;2023-07-13T10:46:57;25.60;80.20
4453;DHT22;2239;48.152;11.584;2023-07-13T10:49:24;25.60;79.70
4453;DHT22;2239;48.152;11.584;2023-07-13T10:51:52;25.60;79.20
4453;DHT22;2239;48.152;11.584;2023-07-13T10:54:32;25.50;78.60
4453;DHT22;2239;48.152;11.584;2023-07-13T10:57:18;25.60;79.10
4453;DHT22;2239;48.152;11.584;2023-07-13T11:00:35;25.90;79.00
4453;DHT22;2239;48.152;11.584;2023-07-13T11:02:36;26.00;79.60
4453;DHT22;2239;48.152;11.584;2023-07-13T11:07:56;25.90;79.20
4453;DHT22;2239;48.152;11.584;2023-07-13T11:10:48;25.80;79.90
4453;DHT22;2239;48.152;11.584;2023-07-13T11:16:34;25.40;79.50
4453;DHT22;2239;48.152;11.584;2023-07-13T11:21:31;25.30;80.10
4453;DHT22;2239;48.152;11.584;2023-07-13T11:24:03;25.60;81.40
4453;DHT22;2239;48.152;11.584;2023-07-13T11:26:50;25.80;79.80
4453;DHT22;2239;48.152;11.584;2023-07-13T11:31:59;26.00;74.60
4453;DHT22;2239;48.152;11.584;2023-07-13T11:34:38;26.10;74.40
4453;DHT22;2239;48.152;11.584;2023-07-13T11:37:11;26.10;73.60
4453;DHT22;2239;48.152;11.584;2023-07-13T11:39:41;26.20;72.80
4453;DHT22;2239;48.152;11.584;2023-07-13T11:42:13;26.20;72.70
4453;DHT22;2239;48.152;11.584;2023-07-13T11:44:48;26.20;72.40
4453;DHT22;2239;48.152;11.584;2023-07-13T11:47:18;25.90;70.50
4453;DHT22;2239;48.152;11.584;2023-07-13T11:49:54;26.00;71.10
4453;DHT22;2239;48.152;11.584;2023-07-13T11:52:35;26.00;69.60
4453;DHT22;2239;48.152;11.584;2023-07-13T11:55:03;26.00;65.40
4453;DHT22;2239;48.152;11.584;2023-07-13T11:57:36;26.00;65.50
4453;DHT22;2239;48.152;11.584;2023-07-13T12:00:11;26.20;65.30
4453;DHT22;2239;48.152;11.584;2023-07-13T12:02:40;26.60;65.20
4453;DHT22;2239;48.152;11.584;2023-07-13T12:05:11;26.60;67.00
4453;DHT22;2239;48.152;11.584;2023-07-13T12:07:38;27.00;66.40
4453;DHT22;2239;48.152;11.584;2023-07-13T12:12:54;27.20;67.90
4453;DHT22;2239;48.152;11.584;2023-07-13T12:15:21;27.60;65.70
4453;DHT22;2239;48.152;11.584;2023-07-13T12:17:48;27.50;65.00
4453;DHT22;2239;48.152;11.584;2023-07-13T12:20:33;27.30;65.30
4453;DHT22;2239;48.152;11.584;2023-07-13T12:22:59;27.00;66.20
4453;DHT22;2239;48.152;11.584;2023-07-13T12:25:27;27.00;67.20
4453;DHT22;2239;48.152;11.584;2023-07-13T12:27:52;26.50;68.60
4453;DHT22;2239;48.152;11.584;2023-07-13T12:30:32;26.30;70.30
4453;DHT22;2239;48.152;11.584;2023-07-13T12:33:10;26.20;72.20
4453;DHT22;2239;48.152;11.584;2023-07-13T12:35:44;26.20;71.60
4453;DHT22;2239;48.152;11.584;2023-07-13T12:38:11;26.50;70.50
4453;DHT22;2239;48.152;11.584;2023-07-13T12:40:38;26.80;69.80
4453;DHT22;2239;48.152;11.584;2023-07-13T12:43:09;26.70;70.50
4453;DHT22;2239;48.152;11.584;2023-07-13T12:45:36;26.60;70.20
4453;DHT22;2239;48.152;11.584;2023-07-13T12:48:13;26.50;70.30
4453;DHT22;2239;48.152;11.584;2023-07-13T12:50:42;26.40;71.40
4453;DHT22;2239;48.152;11.584;2023-07-13T12:53:14;26.70;72.20
4453;DHT22;2239;48.152;11.584;2023-07-13T12:55:43;26.70;68.80
4453;DHT22;2239;48.152;11.584;2023-07-13T12:58:18;26.50;69.10
4453;DHT22;2239;48.152;11.584;2023-07-13T13:00:49;26.60;71.50
4453;DHT22;2239;48.152;11.584;2023-07-13T13:03:32;26.90;70.50
4453;DHT22;2239;48.152;11.584;2023-07-13T13:06:04;27.10;68.70
4453;DHT22;2239;48.152;11.584;2023-07-13T13:08:32;27.00;67.80
4453;DHT22;2239;48.152;11.584;2023-07-13T13:10:58;27.00;67.30
4453;DHT22;2239;48.152;11.584;2023-07-13T13:13:24;26.90;67.00
4453;DHT22;2239;48.152;11.584;2023-07-13T13:15:50;26.40;66.40
4453;DHT22;2239;48.152;11.584;2023-07-13T13:18:22;26.30;68.80
4453;DHT22;2239;48.152;11.584;2023-07-13T13:20:49;26.60;67.20
4453;DHT22;2239;48.152;11.584;2023-07-13T13:23:18;26.80;65.90
4453;DHT22;2239;48.152;11.584;2023-07-13T13:25:46;26.90;65.90
4453;DHT22;2239;48.152;11.584;2023-07-13T13:28:16;27.00;65.00
4453;DHT22;2239;48.152;11.584;2023-07-13T13:30:43;27.20;65.70
4453;DHT22;2239;48.152;11.584;2023-07-13T13:33:12;27.30;63.40
4453;DHT22;2239;48.152;11.584;2023-07-13T13:35:39;27.70;62.70
4453;DHT22;2239;48.152;11.584;2023-07-13T13:38:16;27.60;60.30
4453;DHT22;2239;48.152;11.584;2023-07-13T13:40:44;27.50;61.10
4453;DHT22;2239;48.152;11.584;2023-07-13T13:43:22;27.10;60.80
4453;DHT22;2239;48.152;11.584;2023-07-13T13:45:52;27.10;61.50
4453;DHT22;2239;48.152;11.584;2023-07-13T13:48:20;27.10;63.30
4453;DHT22;2239;48.152;11.584;2023-07-13T13:50:48;27.10;62.40
4453;DHT22;2239;48.152;11.584;2023-07-13T13:53:14;27.00;63.00
4453;DHT22;2239;48.152;11.584;2023-07-13T13:55:40;26.90;62.90
4453;DHT22;2239;48.152;11.584;2023-07-13T13:58:10;26.80;62.80
4453;DHT22;2239;48.152;11.584;2023-07-13T14:00:37;26.70;63.90
4453;DHT22;2239;48.152;11.584;2023-07-13T14:03:03;26.70;63.80
4453;DHT22;2239;48.152;11.584;2023-07-13T14:05:29;26.70;62.80
4453;DHT22;2239;48.152;11.584;2023-07-13T14:07:55;26.70;64.60
4453;DHT22;2239;48.152;11.584;2023-07-13T14:10:22;26.90;63.70
4453;DHT22;2239;48.152;11.584;2023-07-13T14:12:52;26.90;63.20
4453;DHT22;2239;48.152;11.584;2023-07-13T14:15:29;26.80;63.10
4453;DHT22;2239;48.152;11.584;2023-07-13T14:17:56;26.90;64.10
4453;DHT22;2239;48.152;11.584;2023-07-13T14:20:24;26.90;64.10
4453;DHT22;2239;48.152;11.584;2023-07-13T14:22:53;26.90;63.30
4453;DHT22;2239;48.152;11.584;2023-07-13T14:25:20;27.10;63.20
4453;DHT22;2239;48.152;11.584;2023-07-13T14:27:49;27.30;63.50
4453;DHT22;2239;48.152;11.584;2023-07-13T14:30:20;27.30;62.40
4453;DHT22;2239;48.152;11.584;2023-07-13T14:32:46;27.00;61.80
4453;DHT22;2239;48.152;11.584;2023-07-13T14:35:20;26.80;63.00
4453;DHT22;2239;48.152;11.584;2023-07-13T14:37:47;26.80;62.40
4453;DHT22;2239;48.152;11.584;2023-07-13T14:40:19;26.80;62.90
4453;DHT22;2239;48.152;11.584;2023-07-13T14:42:49;26.90;63.30
4453;DHT22;2239;48.152;11.584;2023-07-13T14:45:17;27.00;62.20
4453;DHT22;2239;48.152;11.584;2023-07-13T14:47:44;27.20;61.90
4453;DHT22;2239;48.152;11.584;2023-07-13T14:50:15;27.00;62.30
4453;DHT22;2239;48.152;11.584;2023-07-13T14:52:41;27.00;61.80
4453;DHT22;2239;48.152;11.584;2023-07-13T14:55:16;27.10;61.20
4453;DHT22;2239;48.152;11.584;2023-07-13T14:57:41;27.20;61.60
4453;DHT22;2239;48.152;11.584;2023-07-13T15:00:13;27.10;60.90
4453;DHT22;2239;48.152;11.584;2023-07-13T15:02:41;26.70;61.10
4453;DHT22;2239;48.152;11.584;2023-07-13T15:07:39;26.00;63.60
4453;DHT22;2239;48.152;11.584;2023-07-13T15:10:17;26.10;64.10
4453;DHT22;2239;48.152;11.584;2023-07-13T15:12:43;26.20;64.30
4453;DHT22;2239;48.152;11.584;2023-07-13T15:15:09;26.30;64.70
4453;DHT22;2239;48.152;11.584;2023-07-13T15:17:40;26.40;64.10
4453;DHT22;2239;48.152;11.584;2023-07-13T15:22:37;26.10;64.50
4453;DHT22;2239;48.152;11.584;2023-07-13T15:25:03;26.20;64.00
4453;DHT22;2239;48.152;11.584;2023-07-13T15:27:29;26.30;63.50
4453;DHT22;2239;48.152;11.584;2023-07-13T15:29:55;26.30;63.40
4453;DHT22;2239;48.152;11.584;2023-07-13T15:32:20;26.30;62.50
4453;DHT22;2239;48.152;11.584;2023-07-13T15:34:47;26.40;63.40
4453;DHT22;2239;48.152;11.584;2023-07-13T15:37:16;26.40;62.80
4453;DHT22;2239;48.152;11.584;2023-07-13T15:39:41;26.40;62.70
4453;DHT22;2239;48.152;11.584;2023-07-13T15:42:19;26.60;63.30
4453;DHT22;2239;48.152;11.584;2023-07-13T15:44:44;26.60;62.40
4453;DHT22;2239;48.152;11.584;2023-07-13T15:47:14;26.80;62.60
4453;DHT22;2239;48.152;11.584;2023-07-13T15:49:41;26.80;60.90
4453;DHT22;2239;48.152;11.584;2023-07-13T15:52:18;26.90;61.20
4453;DHT22;2239;48.152;11.584;2023-07-13T15:54:45;27.00;62.10
4453;DHT22;2239;48.152;11.584;2023-07-13T15:57:12;26.80;61.10
4453;DHT22;2239;48.152;11.584;2023-07-13T15:59:38;26.60;62.50
4453;DHT22;2239;48.152;11.584;2023-07-13T16:02:22;26.60;62.70
4453;DHT22;2239;48.152;11.584;2023-07-13T16:04:48;26.40;62.00
4453;DHT22;2239;48.152;11.584;2023-07-13T16:07:15;26.00;63.30
4453;DHT22;2239;48.152;11.584;2023-07-13T16:09:43;26.10;63.70
4453;DHT22;2239;48.152;11.584;2023-07-13T16:12:11;26.20;64.20
4453;DHT22;2239;48.152;11.584;2023-07-13T16:14:37;26.40;63.80
4453;DHT22;2239;48.152;11.584;2023-07-13T16:17:04;26.30;63.20
4453;DHT22;2239;48.152;11.584;2023-07-13T16:19:32;26.40;62.90
4453;DHT22;2239;48.152;11.584;2023-07-13T16:21:59;26.50;63.10
4453;DHT22;2239;48.152;11.584;2023-07-13T16:24:26;26.50;62.90
4453;DHT22;2239;48.152;11.584;2023-07-13T16:26:52;26.50;63.10